Nearby METAR Reports

 

KSJC - San Jose, California, USA
Distance from station: NØ 14km
Oppdatert: 31/05/2020 14:53
Delvis skyet
Delvis skyet
 Vind fra SSØ
Vind: SSØ 7 km/h
Temperatur: 13°C
Duggpunkt: 10°C
Fuktighet: 82%
Barometer: 1014.6 hPa
Clouds: Delvis skyet
Visibility: 16 km
Cloud details: Few Clouds 335 m
Delvis skyet 3048 m
2020/05/31 12:53 KSJC 311253Z 16004KT 10SM FEW011 SCT100 13/10 A2996 RMK AO2 SLP144 T01330100
KNUQ - Moffett Nas/Mtn, California, USA
Distance from station: N 14km
Oppdatert: 31/05/2020 15:35
Overskyet
Overskyet
 Vind fra N
Vind: N 9 km/h
Temperatur: 16°C
Duggpunkt: 12°C
Fuktighet: 77%
Barometer: 1014.9 hPa
Clouds: Overskyet
Visibility: 16 km
Cloud details: Overskyet 518 m
2020/05/31 13:35 KNUQ 311335Z AUTO 35005KT 10SM OVC017 16/12 A2997 RMK AO2
 
KPAO - Palo Alto, California, USA
Distance from station: NNV 23km
Oppdatert: 31/05/2020 00:47
NOT Current
Overskyet
Overskyet
 Vind fra S
Vind: S 17 km/h
Temperatur: 22°C
Duggpunkt: 11°C
Fuktighet: 50%
Barometer: 1013.2 hPa
Clouds: Overskyet
Visibility: 16 km
Cloud details: Overskyet 914 m
2020/05/30 22:47 KPAO 302247Z 19009KT 10SM OVC030 22/11 A2992 RMK LAST GPS/VOR N/A AT NIGHT.
KRHV - San Jose/Reid, California, USA
Distance from station: ØNØ 19km
Oppdatert: 31/05/2020 06:50
NOT Current
Delvis skyet
Delvis skyet
 Vind fra varies
Vind: varies 7 km/h
Temperatur: 17°C
Duggpunkt: 12°C
Fuktighet: 73%
Barometer: 1014.9 hPa
Clouds: Delvis skyet
Visibility: 16 km
Cloud details: Delvis skyet 1219 m
2020/05/31 04:50 KRHV 310450Z VRB04KT 10SM SCT040 17/12 A2997 RMK LAST
 
KOAK - Oakland, California, USA
Distance from station: NNV 50km
Oppdatert: 31/05/2020 14:53
Overskyet
Overskyet
 Vind fra VNV
Vind: VNV 13 km/h
Temperatur: 16°C
Duggpunkt: 12°C
Fuktighet: 77%
Barometer: 1014.9 hPa
Clouds: Overskyet
Visibility: 16 km
Cloud details: Overskyet 518 m
2020/05/31 12:53 KOAK 311253Z 30007KT 10SM OVC017 16/12 A2997 RMK AO2 SLP148 T01610122
KSQL - San Carlos Airpo, California, USA
Distance from station: NV 34km
Oppdatert: 31/05/2020 15:47
Overskyet
Overskyet
 Vind fra VSV
Vind: VSV 9 km/h
Temperatur: 15°C
Duggpunkt: 12°C
Fuktighet: 82%
Barometer: 1015.2 hPa
Clouds: Overskyet
Visibility: 16 km
Cloud details: Few Clouds 549 m
Overskyet 640 m
2020/05/31 13:47 KSQL 311347Z 25005KT 10SM FEW018 OVC021 15/12 A2998
 
KSFO - San Francisco, California, USA
Distance from station: NV 49km
Oppdatert: 31/05/2020 14:56
Overskyet
Overskyet
 Vind fra V
Vind: V 11 km/h
Temperatur: 13°C
Duggpunkt: 11°C
Fuktighet: 88%
Barometer: 1014.6 hPa
Clouds: Overskyet
Visibility: 16 km
Cloud details: Few Clouds 549 m
Overskyet 640 m
2020/05/31 12:56 KSFO 311256Z 28006KT 10SM FEW018 OVC021 13/11 A2996 RMK AO2 SLP146 T01330106
KE16 - San Martin, California, USA
Distance from station: ØSØ 43km
Oppdatert: 31/05/2020 15:25
Mist, Overskyet
Mist, Overskyet
 Vind fra calm
Vind: Stille
Temperatur: 13°C
Duggpunkt: 12°C
Fuktighet: 94%
Barometer: 1015.6 hPa
Oversikt: Mist
Clouds: Overskyet
Visibility: 5 km
Cloud details: Overskyet 91 m
2020/05/31 13:25 KE16 311325Z AUTO 00000KT 3SM BR OVC003 13/12 A2999 RMK AO2
 
KWVI - Watsonville, California, USA
Distance from station: SSØ 44km
Oppdatert: 31/05/2020 14:53
Klart
Klart
 Vind fra NV
Vind: NV 7 km/h
Temperatur: 12°C
Duggpunkt: 11°C
Fuktighet: 94%
Barometer: 1014.6 hPa
Clouds: Klart
Visibility: 16 km
2020/05/31 12:53 KWVI 311253Z AUTO 32004KT 10SM CLR 12/11 A2996 RMK AO2 SLP145 T01170106
KHAF - Half Moon Bay, California, USA
Distance from station: VNV 50km
Oppdatert: 31/05/2020 15:35
Overskyet
Overskyet
 Vind fra calm
Vind: Stille
Temperatur: 13°C
Duggpunkt: 12°C
Fuktighet: 94%
Barometer: 1015.2 hPa
Clouds: Overskyet
Visibility: 16 km
Cloud details: Overskyet 457 m
2020/05/31 13:35 KHAF 311335Z AUTO 00000KT 10SM OVC015 13/12 A2998 RMK AO2
 
KHWD - Hayward, California, USA
Distance from station: N 44km
Oppdatert: 31/05/2020 14:54
Overskyet
Overskyet
 Vind fra calm
Vind: Stille
Temperatur: 15°C
Duggpunkt: 11°C
Fuktighet: 77%
Barometer: 1014.6 hPa
Clouds: Overskyet
Visibility: 16 km
Cloud details: Overskyet 549 m
2020/05/31 12:54 KHWD 311254Z 00000KT 10SM OVC018 15/11 A2996 RMK AO2 SLP153 T01500111
KLVK - Livermore, California, USA
Distance from station: NNØ 51km
Oppdatert: 31/05/2020 15:27

 
Temperatur: 13°C
Duggpunkt: 12°C
Fuktighet: 94%
Barometer: 1014.6 hPa
2020/05/31 13:27 KLVK 311327Z AUTO 13/12 A2996 RMK AO2 T01330117 $